Time;durP1;ratioP1;P1;durP2;ratioP2;P2;SDS_P1;SDS_P2;PMS_P1;PMS_P2;Temp;Humidity;BMP_temperature;BMP_pressure;BME280_temperature;BME280_humidity;BME280_pressure;Samples;Min_cycle;Max_cycle;Signal;HPM_P1;HPM_P2
2023/06/19 00:00:56;;;;;;;3.20;1.90;;;21.80;99.90;;;;;;5006891;28;20025;-80
2023/06/19 00:03:22;;;;;;;2.17;1.67;;;21.80;99.90;;;;;;5005686;28;20033;-80
2023/06/19 00:05:47;;;;;;;2.72;1.67;;;21.80;99.90;;;;;;5006394;28;20038;-80
2023/06/19 00:08:13;;;;;;;2.70;2.08;;;21.70;99.90;;;;;;5037534;28;20040;-81
2023/06/19 00:10:39;;;;;;;3.95;1.60;;;21.60;99.90;;;;;;5004272;28;20014;-80
2023/06/19 00:13:04;;;;;;;3.35;2.03;;;21.70;99.90;;;;;;5007413;28;20038;-79
2023/06/19 00:15:30;;;;;;;2.90;2.05;;;21.70;99.90;;;;;;5023983;28;20025;-80
2023/06/19 00:17:57;;;;;;;2.65;1.50;;;21.70;99.90;;;;;;5007402;28;20758;-79
2023/06/19 00:20:23;;;;;;;2.80;1.88;;;21.70;99.90;;;;;;5039262;28;20022;-81
2023/06/19 00:22:51;;;;;;;2.97;1.42;;;21.70;99.90;;;;;;5004858;28;20075;-82
2023/06/19 00:25:20;;;;;;;2.28;1.55;;;21.60;99.90;;;;;;5007157;28;20037;-79
2023/06/19 00:27:46;;;;;;;2.47;1.50;;;21.70;99.90;;;;;;5007562;28;20081;-79
2023/06/19 00:30:12;;;;;;;1.70;1.17;;;21.70;99.90;;;;;;4992041;28;20026;-81
2023/06/19 00:32:46;;;;;;;2.63;1.45;;;21.70;99.90;;;;;;5009022;28;20032;-82
2023/06/19 00:35:13;;;;;;;1.85;1.35;;;21.70;99.90;;;;;;5010442;28;20025;-81
2023/06/19 00:37:39;;;;;;;2.47;1.77;;;21.80;99.90;;;;;;5005723;28;20022;-82
2023/06/19 00:40:10;;;;;;;2.70;1.42;;;21.80;99.90;;;;;;5009381;28;20498;-81
2023/06/19 00:42:36;;;;;;;2.90;1.50;;;21.80;99.90;;;;;;5007302;28;20021;-81
2023/06/19 00:45:01;;;;;;;2.63;1.92;;;21.80;99.90;;;;;;5004954;28;20041;-82
2023/06/19 00:47:27;;;;;;;1.90;1.25;;;21.90;99.90;;;;;;4990404;28;20049;-81
2023/06/19 00:52:19;;;;;;;2.70;1.50;;;21.90;99.90;;;;;;5004317;28;20057;-82
2023/06/19 00:54:45;;;;;;;2.28;1.27;;;21.90;99.90;;;;;;5008828;28;20034;-81
2023/06/19 00:57:11;;;;;;;2.22;1.25;;;21.90;99.90;;;;;;4990056;28;20036;-82
2023/06/19 00:59:36;;;;;;;3.55;1.48;;;21.90;99.90;;;;;;5007465;28;20065;-81
2023/06/19 01:02:03;;;;;;;2.05;1.40;;;21.90;99.90;;;;;;5009805;28;20049;-82
2023/06/19 01:04:28;;;;;;;2.28;1.27;;;21.90;99.90;;;;;;5003692;28;20248;-82
2023/06/19 01:07:01;;;;;;;2.28;1.40;;;21.90;99.90;;;;;;4988990;28;20495;-82
2023/06/19 01:09:48;;;;;;;2.70;1.70;;;21.90;99.90;;;;;;5006235;28;20025;-81
2023/06/19 01:12:18;;;;;;;2.28;1.65;;;21.90;99.90;;;;;;5018996;28;20053;-80
2023/06/19 01:14:56;;;;;;;2.60;1.83;;;21.90;99.90;;;;;;4991640;28;20376;-79
2023/06/19 01:17:22;;;;;;;2.00;1.48;;;21.90;99.90;;;;;;5008398;28;20023;-81
2023/06/19 01:19:48;;;;;;;2.03;1.40;;;21.90;99.90;;;;;;5007221;28;20034;-81
2023/06/19 01:22:30;;;;;;;2.90;2.15;;;21.90;99.90;;;;;;4987460;28;20041;-81
2023/06/19 01:24:58;;;;;;;2.28;1.45;;;21.80;99.90;;;;;;5004326;28;20105;-80
2023/06/19 01:27:25;;;;;;;3.58;1.63;;;21.80;99.90;;;;;;4988232;28;20125;-81
2023/06/19 01:29:53;;;;;;;3.75;1.42;;;21.80;99.90;;;;;;5002591;28;20448;-79
2023/06/19 01:32:29;;;;;;;2.60;1.73;;;21.80;99.90;;;;;;5019220;28;20034;-81
2023/06/19 01:34:58;;;;;;;4.82;2.30;;;21.80;99.90;;;;;;5020429;28;20021;-80
2023/06/19 01:37:27;;;;;;;2.40;1.77;;;21.80;99.90;;;;;;5020179;28;20030;-80
2023/06/19 01:39:56;;;;;;;3.33;1.50;;;21.80;99.90;;;;;;5006217;28;20081;-81
2023/06/19 01:42:22;;;;;;;3.20;1.52;;;21.70;99.90;;;;;;4988658;28;20434;-80
2023/06/19 01:44:50;;;;;;;2.33;1.40;;;21.80;99.90;;;;;;5008006;28;20050;-79
2023/06/19 01:47:19;;;;;;;1.88;1.17;;;21.70;99.90;;;;;;4990306;28;20072;-81
2023/06/19 01:49:46;;;;;;;2.17;1.38;;;21.70;99.90;;;;;;5005704;28;20023;-81
2023/06/19 01:52:12;;;;;;;2.20;1.45;;;21.60;99.90;;;;;;5022020;28;20057;-79
2023/06/19 01:54:37;;;;;;;2.55;1.95;;;21.60;99.90;;;;;;5038698;28;20055;-80
2023/06/19 01:57:03;;;;;;;2.00;1.45;;;21.60;99.90;;;;;;5007131;28;20054;-81
2023/06/19 01:59:29;;;;;;;3.97;1.95;;;21.60;99.90;;;;;;5005611;28;20026;-80
2023/06/19 02:01:55;;;;;;;2.42;1.58;;;21.60;99.90;;;;;;5008187;28;20387;-81
2023/06/19 02:04:21;;;;;;;2.08;1.58;;;21.50;99.90;;;;;;5020756;28;20434;-79
2023/06/19 02:06:47;;;;;;;3.03;1.60;;;21.50;99.90;;;;;;5018743;28;20045;-80
2023/06/19 02:09:13;;;;;;;2.50;1.30;;;21.50;99.90;;;;;;5038703;28;20038;-80
2023/06/19 02:11:38;;;;;;;2.50;1.30;;;21.50;99.90;;;;;;5007887;28;20060;-80
2023/06/19 02:14:04;;;;;;;2.30;1.67;;;21.50;99.90;;;;;;5005513;28;20023;-82
2023/06/19 02:16:30;;;;;;;2.25;1.55;;;21.40;99.90;;;;;;5008027;28;20497;-82
2023/06/19 02:18:56;;;;;;;4.20;1.27;;;21.30;99.90;;;;;;5006589;28;20026;-82
2023/06/19 02:21:22;;;;;;;2.53;1.65;;;21.20;99.90;;;;;;5039547;28;20116;-81
2023/06/19 02:23:51;;;;;;;2.35;1.48;;;21.20;99.90;;;;;;5007145;28;20021;-82
2023/06/19 02:26:16;;;;;;;2.67;1.65;;;21.10;99.90;;;;;;5021495;28;20521;-81
2023/06/19 02:28:42;;;;;;;3.58;1.77;;;21.10;99.90;;;;;;5007252;28;20040;-81
2023/06/19 02:31:07;;;;;;;2.10;1.70;;;21.10;99.90;;;;;;5023141;28;20045;-82
2023/06/19 02:33:33;;;;;;;2.85;1.50;;;21.10;99.90;;;;;;5002000;28;20026;-79
2023/06/19 02:35:59;;;;;;;3.13;1.65;;;21.10;99.90;;;;;;4987461;28;20462;-81
2023/06/19 02:38:29;;;;;;;2.90;1.52;;;21.10;99.90;;;;;;5035794;28;20053;-80
2023/06/19 02:40:57;;;;;;;4.15;1.73;;;21.10;99.90;;;;;;5020602;28;20022;-79
2023/06/19 02:43:23;;;;;;;2.08;1.00;;;20.90;99.90;;;;;;5005717;28;20363;-79
2023/06/19 02:45:48;;;;;;;2.65;1.15;;;20.90;99.90;;;;;;5019301;28;20378;-80
2023/06/19 02:48:14;;;;;;;1.98;1.23;;;20.80;99.90;;;;;;5037579;28;20487;-80
2023/06/19 02:50:40;;;;;;;3.33;1.63;;;20.70;99.90;;;;;;5020988;28;20041;-79
2023/06/19 02:53:05;;;;;;;2.30;1.30;;;20.60;99.90;;;;;;5004797;28;20033;-81
2023/06/19 02:55:31;;;;;;;2.45;1.15;;;20.50;99.90;;;;;;5006263;28;20109;-81
2023/06/19 02:57:57;;;;;;;2.70;1.15;;;20.50;99.90;;;;;;5038801;28;20207;-80
2023/06/19 03:00:22;;;;;;;2.97;1.20;;;20.40;99.90;;;;;;5006186;28;20291;-80
2023/06/19 03:02:50;;;;;;;5.38;1.38;;;20.30;99.90;;;;;;5034518;28;20034;-81
2023/06/19 03:05:16;;;;;;;1.70;0.80;;;20.30;99.90;;;;;;5020656;28;20138;-80
2023/06/19 03:07:42;;;;;;;3.15;0.98;;;20.20;99.90;;;;;;5004806;28;20121;-81
2023/06/19 03:10:08;;;;;;;2.30;0.98;;;20.20;99.90;;;;;;5005382;28;20065;-79
2023/06/19 03:12:34;;;;;;;1.60;0.70;;;20.20;99.90;;;;;;5019268;28;20447;-82
2023/06/19 03:14:59;;;;;;;3.67;1.00;;;20.10;99.90;;;;;;5022359;28;20049;-79
2023/06/19 03:17:27;;;;;;;2.13;0.70;;;20.00;99.90;;;;;;4987520;28;20499;-79
2023/06/19 03:19:53;;;;;;;2.05;0.80;;;20.00;99.90;;;;;;5007115;28;20018;-82
2023/06/19 03:22:21;;;;;;;2.63;0.60;;;19.90;99.90;;;;;;5006735;28;20179;-80
2023/06/19 03:24:47;;;;;;;1.42;0.60;;;19.90;99.90;;;;;;5020275;28;20025;-80
2023/06/19 03:27:19;;;;;;;2.20;0.80;;;19.90;99.90;;;;;;4988853;28;20498;-79
2023/06/19 03:29:44;;;;;;;4.30;0.85;;;19.80;99.90;;;;;;5005461;28;20040;-81
2023/06/19 03:32:14;;;;;;;1.88;0.93;;;19.90;99.90;;;;;;5018616;28;20566;-81
2023/06/19 03:34:40;;;;;;;2.47;0.77;;;19.90;99.90;;;;;;5006955;28;20398;-82
2023/06/19 03:37:08;;;;;;;2.75;0.90;;;19.80;99.90;;;;;;5007384;28;20025;-82
2023/06/19 03:39:34;;;;;;;4.80;1.00;;;19.70;99.90;;;;;;5006371;28;20022;-82
2023/06/19 03:42:06;;;;;;;1.52;0.52;;;19.70;99.90;;;;;;5001875;28;20543;-82
2023/06/19 03:44:32;;;;;;;2.97;0.70;;;19.70;99.90;;;;;;4986299;28;20030;-81
2023/06/19 03:46:58;;;;;;;1.48;0.57;;;19.60;99.90;;;;;;5007421;28;20084;-81
2023/06/19 03:49:24;;;;;;;1.40;0.50;;;19.60;99.90;;;;;;5001813;28;20117;-79
2023/06/19 03:51:50;;;;;;;2.45;0.47;;;19.50;99.90;;;;;;5004752;28;20053;-81
2023/06/19 03:54:15;;;;;;;1.10;0.40;;;19.60;99.90;;;;;;5021809;28;20026;-81
2023/06/19 03:56:41;;;;;;;1.60;0.40;;;19.60;99.90;;;;;;4999554;28;20032;-80
2023/06/19 03:59:07;;;;;;;1.63;0.40;;;19.60;99.90;;;;;;5018877;28;20030;-80
2023/06/19 04:01:32;;;;;;;0.90;0.32;;;19.60;99.90;;;;;;5022159;28;20030;-82
2023/06/19 04:03:59;;;;;;;1.27;0.40;;;19.70;99.90;;;;;;5006607;28;20018;-81
2023/06/19 04:06:24;;;;;;;1.33;0.40;;;19.60;99.90;;;;;;5009794;28;20137;-81
2023/06/19 04:08:51;;;;;;;1.17;0.40;;;19.60;99.90;;;;;;5007670;28;20112;-81
2023/06/19 04:11:17;;;;;;;1.75;0.40;;;19.70;99.90;;;;;;4988408;28;20038;-82
2023/06/19 04:13:44;;;;;;;1.27;0.40;;;19.60;99.90;;;;;;5039609;28;20493;-81
2023/06/19 04:16:12;;;;;;;2.65;0.50;;;19.70;99.90;;;;;;5006295;28;20545;-82
2023/06/19 04:18:37;;;;;;;1.00;0.40;;;19.80;99.90;;;;;;5007662;28;20067;-81
2023/06/19 04:21:03;;;;;;;1.83;0.60;;;19.80;99.90;;;;;;5009526;28;20088;-81
2023/06/19 04:23:31;;;;;;;1.10;0.50;;;19.80;99.90;;;;;;5006147;28;20030;-81
2023/06/19 04:25:57;;;;;;;1.13;0.40;;;19.80;99.90;;;;;;5008459;28;20052;-82
2023/06/19 04:28:22;;;;;;;2.25;0.40;;;19.90;99.90;;;;;;5008857;28;20308;-81
2023/06/19 04:30:48;;;;;;;1.00;0.43;;;19.90;99.90;;;;;;5008204;28;20024;-81
2023/06/19 04:33:13;;;;;;;1.10;0.50;;;20.00;99.90;;;;;;5006161;28;20057;-81
2023/06/19 04:35:42;;;;;;;1.67;0.70;;;20.00;99.90;;;;;;5004033;28;20472;-79
2023/06/19 04:38:08;;;;;;;1.38;0.40;;;20.00;99.90;;;;;;5007222;28;20038;-80
2023/06/19 04:40:34;;;;;;;1.40;0.40;;;20.00;99.90;;;;;;4989404;28;20376;-79
2023/06/19 04:43:02;;;;;;;1.00;0.50;;;20.00;99.90;;;;;;5006168;28;20061;-81
2023/06/19 04:45:28;;;;;;;0.90;0.40;;;20.00;99.90;;;;;;5035554;28;20156;-80
2023/06/19 04:47:54;;;;;;;1.25;0.50;;;20.10;99.90;;;;;;5019850;28;20113;-80
2023/06/19 04:50:20;;;;;;;1.85;0.50;;;20.00;99.90;;;;;;5008098;28;20533;-81
2023/06/19 04:52:47;;;;;;;1.35;0.47;;;20.00;99.90;;;;;;4991988;28;20033;-81
2023/06/19 04:55:13;;;;;;;1.70;0.32;;;20.10;99.90;;;;;;5006623;28;20037;-81
2023/06/19 04:57:38;;;;;;;1.10;0.40;;;20.30;99.90;;;;;;5020299;28;20026;-81
2023/06/19 05:00:09;;;;;;;0.88;0.30;;;20.40;99.90;;;;;;5002986;28;20691;-81
2023/06/19 05:02:35;;;;;;;1.80;0.50;;;20.40;99.90;;;;;;5002070;28;20115;-81
2023/06/19 05:05:03;;;;;;;0.98;0.40;;;20.30;99.90;;;;;;5004065;28;20076;-79
2023/06/19 05:07:32;;;;;;;1.55;0.50;;;20.30;99.90;;;;;;5013894;28;20037;-80
2023/06/19 05:09:58;;;;;;;1.50;0.50;;;20.30;99.90;;;;;;5037245;28;20119;-79
2023/06/19 05:12:24;;;;;;;1.83;0.50;;;20.40;99.90;;;;;;5019712;28;20435;-80
2023/06/19 05:14:50;;;;;;;2.88;0.50;;;20.30;99.90;;;;;;4989083;28;20496;-80
2023/06/19 05:17:16;;;;;;;1.95;0.50;;;20.20;99.90;;;;;;4986751;28;20181;-79
2023/06/19 05:19:41;;;;;;;1.30;0.65;;;20.40;99.90;;;;;;5034405;28;20030;-79
2023/06/19 05:22:07;;;;;;;2.15;0.68;;;20.40;99.90;;;;;;4991018;28;20374;-79
2023/06/19 05:24:33;;;;;;;1.73;0.60;;;20.40;99.90;;;;;;4989826;28;20096;-79
2023/06/19 05:26:59;;;;;;;1.65;0.68;;;20.30;99.90;;;;;;5016039;28;20038;-79
2023/06/19 05:29:25;;;;;;;3.88;0.80;;;20.30;99.90;;;;;;5005009;28;20049;-78
2023/06/19 05:31:51;;;;;;;1.50;0.70;;;20.20;99.90;;;;;;4985393;28;20033;-79
2023/06/19 05:34:17;;;;;;;1.70;0.73;;;20.20;99.90;;;;;;5021041;28;20053;-79
2023/06/19 05:36:46;;;;;;;2.63;1.10;;;20.30;99.90;;;;;;5000521;28;20030;-79
2023/06/19 05:39:14;;;;;;;2.78;0.68;;;20.30;99.90;;;;;;5005533;28;20611;-79
2023/06/19 05:41:41;;;;;;;2.00;0.90;;;20.40;99.90;;;;;;5006795;28;20391;-79
2023/06/19 05:44:07;;;;;;;3.05;0.90;;;20.50;99.90;;;;;;5003074;28;20117;-79
2023/06/19 05:46:32;;;;;;;2.20;0.88;;;20.50;99.90;;;;;;5036471;28;20172;-79
2023/06/19 05:48:58;;;;;;;4.20;1.20;;;20.40;99.90;;;;;;5020459;28;20026;-79
2023/06/19 05:51:23;;;;;;;2.38;0.90;;;20.40;99.90;;;;;;5005020;28;20056;-78
2023/06/19 05:53:49;;;;;;;2.10;0.90;;;20.40;99.90;;;;;;5004560;28;20127;-78
2023/06/19 05:56:16;;;;;;;2.15;1.20;;;20.60;99.90;;;;;;4990722;28;20045;-79
2023/06/19 05:58:41;;;;;;;2.05;1.00;;;20.70;99.90;;;;;;5038022;28;20037;-79
2023/06/19 06:01:07;;;;;;;2.08;1.10;;;20.60;99.90;;;;;;5035813;28;20026;-80
2023/06/19 06:03:33;;;;;;;2.65;1.15;;;20.70;99.90;;;;;;5001679;28;20109;-79
2023/06/19 06:06:02;;;;;;;2.80;1.80;;;20.90;99.90;;;;;;5005655;28;20450;-80
2023/06/19 06:08:29;;;;;;;2.75;1.20;;;21.00;99.90;;;;;;4989719;28;20118;-78
2023/06/19 06:10:55;;;;;;;2.20;1.20;;;21.10;99.90;;;;;;5006543;28;20029;-79
2023/06/19 06:13:21;;;;;;;2.45;1.25;;;21.30;99.90;;;;;;5004476;28;20040;-80
2023/06/19 06:15:46;;;;;;;2.83;2.15;;;21.30;99.90;;;;;;5002520;28;20483;-79
2023/06/19 06:18:12;;;;;;;2.03;1.02;;;21.00;99.90;;;;;;4988789;28;20056;-79
2023/06/19 06:20:37;;;;;;;2.13;1.33;;;21.20;99.90;;;;;;5002778;28;20467;-78
2023/06/19 06:23:03;;;;;;;2.15;1.15;;;21.00;99.90;;;;;;5002533;28;20057;-78
2023/06/19 06:25:29;;;;;;;4.78;1.60;;;21.00;99.90;;;;;;5004071;28;20034;-79
2023/06/19 06:27:55;;;;;;;2.55;1.42;;;21.10;99.90;;;;;;4984410;28;20054;-79
2023/06/19 06:30:21;;;;;;;2.78;1.30;;;21.10;99.90;;;;;;4984684;28;20030;-78
2023/06/19 06:32:47;;;;;;;2.83;1.33;;;21.10;99.90;;;;;;5000186;28;20032;-79
2023/06/19 06:35:13;;;;;;;2.15;1.00;;;21.20;99.90;;;;;;5002739;28;20034;-79
2023/06/19 06:37:39;;;;;;;2.60;1.10;;;21.20;99.90;;;;;;5035883;28;20509;-79
2023/06/19 06:40:09;;;;;;;2.03;1.33;;;21.00;99.90;;;;;;5006739;28;20037;-78
2023/06/19 06:42:35;;;;;;;;;;;21.00;99.90;;;;;;4985833;28;20467;-78
2023/06/19 06:45:00;;;;;;;3.35;1.27;;;20.90;99.90;;;;;;5034780;28;19917;-78
2023/06/19 06:47:26;;;;;;;2.17;1.38;;;20.70;99.90;;;;;;5000348;28;20045;-80
2023/06/19 06:49:52;;;;;;;2.92;1.67;;;20.60;99.90;;;;;;5003471;28;20022;-79
2023/06/19 06:52:18;;;;;;;3.88;0.98;;;20.60;99.90;;;;;;5017680;28;20054;-79
2023/06/19 06:54:43;;;;;;;3.22;1.00;;;20.70;99.90;;;;;;5000231;28;20273;-79
2023/06/19 06:57:09;;;;;;;4.25;1.80;;;20.70;99.90;;;;;;5016091;28;20029;-78
2023/06/19 06:59:35;;;;;;;3.45;1.33;;;20.60;99.90;;;;;;5003740;28;20064;-78
2023/06/19 07:02:00;;;;;;;1.55;0.77;;;20.60;99.90;;;;;;5000322;28;20041;-79
2023/06/19 07:04:26;;;;;;;3.55;1.85;;;20.60;99.90;;;;;;5016377;28;20030;-78
2023/06/19 07:06:52;;;;;;;4.80;2.85;;;20.50;99.90;;;;;;5001633;28;20550;-78
2023/06/19 07:09:18;;;;;;;3.22;1.58;;;20.50;99.90;;;;;;5002878;28;20049;-78
2023/06/19 07:11:43;;;;;;;3.65;2.22;;;20.60;99.90;;;;;;4998986;28;20114;-78
2023/06/19 07:14:09;;;;;;;4.65;2.15;;;20.70;99.90;;;;;;4979816;28;20109;-78
2023/06/19 07:16:35;;;;;;;3.22;1.38;;;20.90;99.90;;;;;;4997832;28;20030;-78
2023/06/19 07:19:00;;;;;;;1.98;1.40;;;21.10;99.90;;;;;;5016076;28;20084;-78
2023/06/19 07:21:29;;;;;;;4.45;1.13;;;21.40;99.90;;;;;;5016215;28;20030;-79
2023/06/19 07:23:55;;;;;;;3.60;2.70;;;21.50;99.90;;;;;;4982947;28;20037;-78
2023/06/19 07:26:21;;;;;;;3.08;2.78;;;21.30;99.90;;;;;;5001834;28;20042;-79
2023/06/19 07:28:47;;;;;;;3.63;1.52;;;21.10;99.90;;;;;;5002133;28;20061;-79
2023/06/19 07:31:13;;;;;;;3.40;1.70;;;21.40;99.90;;;;;;5000441;28;20038;-79
2023/06/19 07:33:39;;;;;;;3.25;1.50;;;21.50;99.90;;;;;;4998856;28;20060;-79
2023/06/19 07:36:05;;;;;;;2.97;1.63;;;21.70;99.90;;;;;;5002487;28;20023;-79
2023/06/19 07:38:32;;;;;;;3.65;2.30;;;21.60;99.90;;;;;;4989038;28;20076;-79
2023/06/19 07:40:58;;;;;;;3.65;2.13;;;21.40;99.90;;;;;;5002715;28;20524;-79
2023/06/19 07:43:24;;;;;;;2.35;1.60;;;21.70;99.90;;;;;;5038198;28;20098;-79
2023/06/19 07:45:51;;;;;;;6.70;1.80;;;22.00;99.90;;;;;;5021102;28;20018;-79
2023/06/19 07:48:17;;;;;;;2.88;1.48;;;22.50;99.90;;;;;;5021125;28;20061;-79
2023/06/19 07:50:43;;;;;;;3.58;3.25;;;23.00;99.90;;;;;;5002739;28;20128;-80
2023/06/19 07:53:09;;;;;;;3.33;2.78;;;22.00;99.90;;;;;;5019982;28;20105;-79
2023/06/19 07:55:35;;;;;;;2.92;2.50;;;22.20;99.90;;;;;;5035393;28;20471;-79
2023/06/19 07:58:01;;;;;;;5.85;2.38;;;22.30;99.90;;;;;;5019169;28;20030;-80
2023/06/19 08:00:26;;;;;;;3.72;3.00;;;22.30;99.90;;;;;;5002938;28;20027;-80
2023/06/19 08:02:52;;;;;;;3.50;1.92;;;22.80;99.90;;;;;;5005044;28;20030;-79
2023/06/19 08:05:18;;;;;;;2.92;1.63;;;23.30;99.90;;;;;;5005619;28;20030;-80
2023/06/19 08:07:44;;;;;;;6.38;5.57;;;23.40;99.90;;;;;;4998934;28;20038;-79
2023/06/19 08:10:10;;;;;;;7.57;6.78;;;22.10;99.90;;;;;;5020452;28;20026;-80
2023/06/19 08:12:36;;;;;;;7.00;6.30;;;21.50;99.90;;;;;;4982232;28;20034;-80
2023/06/19 08:15:02;;;;;;;6.53;5.95;;;21.50;99.90;;;;;;5003546;28;20022;-79
2023/06/19 08:17:27;;;;;;;7.45;6.65;;;22.00;99.90;;;;;;4986908;28;20490;-79
2023/06/19 08:19:53;;;;;;;6.32;5.82;;;22.40;99.90;;;;;;5004657;28;20210;-79
2023/06/19 08:22:19;;;;;;;9.88;7.85;;;22.80;99.90;;;;;;5037322;28;20109;-79
2023/06/19 08:24:44;;;;;;;7.13;6.35;;;22.50;99.90;;;;;;5019820;28;20475;-82
2023/06/19 08:27:10;;;;;;;7.72;6.85;;;22.40;99.90;;;;;;5019373;28;20041;-78
2023/06/19 08:29:35;;;;;;;6.60;5.97;;;21.80;99.90;;;;;;5015534;28;20038;-79
2023/06/19 08:32:01;;;;;;;6.50;5.30;;;22.40;99.90;;;;;;4983615;28;20036;-80
2023/06/19 08:34:28;;;;;;;7.82;7.13;;;22.40;99.90;;;;;;5002451;28;20507;-80
2023/06/19 08:36:53;;;;;;;6.60;5.70;;;22.50;99.90;;;;;;5005162;28;20035;-80
2023/06/19 08:39:22;;;;;;;7.95;7.15;;;23.00;99.90;;;;;;5018786;28;20025;-80
2023/06/19 08:41:48;;;;;;;8.18;7.32;;;22.50;99.90;;;;;;5019368;28;20039;-80
2023/06/19 08:44:13;;;;;;;7.28;6.57;;;22.60;99.90;;;;;;4987727;28;20045;-80
2023/06/19 08:46:41;;;;;;;7.63;5.13;;;22.60;99.90;;;;;;5018992;28;21971;-80
2023/06/19 08:49:10;;;;;;;7.60;6.97;;;22.90;99.90;;;;;;4988310;28;20026;-80
2023/06/19 08:51:35;;;;;;;7.57;6.87;;;22.80;99.90;;;;;;5000841;28;20054;-80
2023/06/19 08:54:08;;;;;;;8.40;7.53;;;23.00;99.90;;;;;;5034788;28;20618;-79
2023/06/19 08:56:37;;;;;;;7.22;6.60;;;22.60;99.90;;;;;;5017284;28;20037;-78
2023/06/19 08:59:14;;;;;;;12.63;8.57;;;22.60;99.90;;;;;;5004762;28;20099;-79
2023/06/19 09:01:51;;;;;;;6.70;6.10;;;22.60;99.90;;;;;;4981891;28;20053;-80
2023/06/19 09:04:19;;;;;;;10.23;6.05;;;22.80;99.90;;;;;;5036020;28;20066;-80
2023/06/19 09:06:50;;;;;;;8.07;6.70;;;23.50;99.90;;;;;;4981287;28;20251;-79
2023/06/19 09:09:17;;;;;;;8.50;6.78;;;23.40;99.90;;;;;;5032153;28;20043;-81
2023/06/19 09:11:43;;;;;;;11.05;7.15;;;23.20;99.90;;;;;;5003490;28;20033;-81
2023/06/19 09:14:12;;;;;;;7.95;6.57;;;23.10;99.90;;;;;;4984936;28;20033;-80
2023/06/19 09:16:40;;;;;;;12.23;8.87;;;23.00;99.90;;;;;;5034599;28;20038;-80
2023/06/19 09:19:06;;;;;;;7.13;6.38;;;22.60;99.90;;;;;;5019888;28;20030;-80
2023/06/19 09:21:35;;;;;;;8.43;7.40;;;22.60;99.90;;;;;;5018608;28;20155;-79
2023/06/19 09:24:07;;;;;;;7.90;7.18;;;22.60;99.90;;;;;;4982120;28;20528;-80
2023/06/19 09:26:34;;;;;;;7.70;5.72;;;22.80;99.90;;;;;;4981905;28;20038;-79
2023/06/19 09:29:15;;;;;;;9.68;8.68;;;23.40;99.90;;;;;;5005150;28;20030;-80
2023/06/19 09:31:41;;;;;;;8.75;7.85;;;23.00;99.90;;;;;;4982716;28;20089;-80
2023/06/19 09:34:08;;;;;;;8.68;7.72;;;23.00;99.90;;;;;;4986288;28;20406;-79
2023/06/19 09:36:35;;;;;;;9.82;8.82;;;23.50;99.90;;;;;;5003718;28;20119;-79
2023/06/19 09:39:03;;;;;;;7.22;6.57;;;23.40;99.90;;;;;;5002411;28;20029;-80
2023/06/19 09:41:30;;;;;;;9.35;7.60;;;23.40;99.90;;;;;;5035498;28;20049;-80
2023/06/19 09:43:59;;;;;;;8.35;7.45;;;23.50;99.90;;;;;;4980973;28;20415;-80
2023/06/19 09:46:32;;;;;;;7.82;7.13;;;23.30;99.90;;;;;;4983462;28;20037;-80
2023/06/19 09:49:01;;;;;;;4.47;4.07;;;23.20;99.90;;;;;;4982414;28;20044;-80
2023/06/19 09:51:47;;;;;;;8.57;7.60;;;24.20;99.90;;;;;;5016526;28;20502;-79
2023/06/19 09:54:14;;;;;;;9.32;8.10;;;24.10;99.90;;;;;;5002979;28;20046;-79
2023/06/19 09:56:40;;;;;;;9.07;7.72;;;23.70;99.90;;;;;;4981483;28;20509;-79
2023/06/19 09:59:09;;;;;;;8.73;7.00;;;23.60;99.90;;;;;;5033157;28;20025;-80
2023/06/19 10:01:36;;;;;;;8.40;6.70;;;23.80;99.90;;;;;;4987179;28;20375;-78
2023/06/19 10:04:07;;;;;;;10.10;8.30;;;24.20;99.90;;;;;;5015633;28;20030;-79
2023/06/19 10:06:42;;;;;;;9.23;8.20;;;24.60;99.90;;;;;;5001784;28;20030;-79
2023/06/19 10:09:09;;;;;;;10.60;9.52;;;24.30;99.90;;;;;;5003760;28;20030;-80
2023/06/19 10:12:11;;;;;;;9.38;8.48;;;24.20;99.90;;;;;;5000594;28;20137;-79
2023/06/19 10:14:47;;;;;;;9.73;7.25;;;24.30;99.90;;;;;;5000165;28;20189;-79
2023/06/19 10:17:16;;;;;;;9.48;8.68;;;25.20;99.90;;;;;;5002807;28;20033;-79
2023/06/19 10:19:50;;;;;;;6.55;5.95;;;24.70;99.90;;;;;;4979765;28;20040;-79
2023/06/19 10:22:21;;;;;;;5.43;4.45;;;25.70;99.90;;;;;;4998347;28;20086;-80
2023/06/19 10:24:50;;;;;;;8.63;7.72;;;25.90;99.90;;;;;;5019229;28;20391;-80
2023/06/19 10:27:24;;;;;;;13.23;12.00;;;24.70;99.90;;;;;;5000515;28;22065;-81
2023/06/19 10:29:54;;;;;;;11.98;10.85;;;24.20;99.90;;;;;;5019424;28;20034;-80
2023/06/19 10:32:20;;;;;;;;;;;24.10;99.90;;;;;;5034747;28;20386;-80
2023/06/19 10:34:47;;;;;;;11.45;10.45;;;24.50;99.90;;;;;;5017125;28;19917;-79
2023/06/19 10:37:13;;;;;;;11.20;10.15;;;24.40;99.90;;;;;;4981998;28;20034;-80
2023/06/19 10:39:38;;;;;;;11.40;9.90;;;24.30;99.90;;;;;;5015209;28;20037;-80
2023/06/19 10:42:08;;;;;;;10.45;9.45;;;24.40;99.90;;;;;;5017468;28;20029;-81
2023/06/19 10:44:34;;;;;;;9.45;8.55;;;24.90;99.90;;;;;;5015530;28;20101;-80
2023/06/19 10:47:01;;;;;;;10.70;9.60;;;25.10;99.90;;;;;;5001345;28;20041;-80
2023/06/19 10:49:27;;;;;;;10.93;9.82;;;24.80;99.90;;;;;;5002379;28;20105;-81
2023/06/19 10:51:58;;;;;;;10.75;9.73;;;25.20;99.90;;;;;;5032947;28;20561;-80
2023/06/19 10:54:24;;;;;;;9.32;8.43;;;24.90;99.90;;;;;;5016727;28;20030;-79
2023/06/19 10:56:51;;;;;;;9.50;8.68;;;25.50;99.90;;;;;;4999853;28;20057;-79
2023/06/19 10:59:18;;;;;;;7.85;6.97;;;25.10;99.90;;;;;;5032299;28;22353;-79
2023/06/19 11:01:48;;;;;;;8.18;7.47;;;25.50;99.90;;;;;;4998950;28;20441;-79
2023/06/19 11:04:15;;;;;;;11.65;10.43;;;25.40;99.90;;;;;;4999568;28;20060;-79
2023/06/19 11:06:43;;;;;;;13.52;10.60;;;25.00;99.90;;;;;;5001882;28;20087;-80
2023/06/19 11:09:10;;;;;;;11.07;10.00;;;24.90;99.90;;;;;;5033755;28;20053;-81
2023/06/19 11:11:46;;;;;;;7.65;6.97;;;24.90;99.90;;;;;;5021753;28;20116;-81
2023/06/19 11:14:13;;;;;;;8.68;7.60;;;25.60;99.90;;;;;;5005068;28;20031;-81
2023/06/19 11:16:44;;;;;;;8.80;7.90;;;25.60;99.90;;;;;;5005712;28;20040;-80
2023/06/19 11:19:21;;;;;;;8.55;7.75;;;25.90;99.90;;;;;;4984557;28;20030;-81
2023/06/19 11:21:49;;;;;;;8.57;6.47;;;25.80;99.90;;;;;;5037833;28;20615;-81
2023/06/19 11:24:15;;;;;;;9.50;8.55;;;26.00;99.90;;;;;;5007316;28;20030;-81
2023/06/19 11:26:51;;;;;;;7.70;6.40;;;26.20;99.90;;;;;;5006231;28;20046;-81
2023/06/19 11:29:18;;;;;;;8.95;8.07;;;26.10;99.90;;;;;;5004167;28;20550;-80
2023/06/19 11:31:45;;;;;;;7.88;7.07;;;26.20;99.90;;;;;;5019204;28;20029;-81
2023/06/19 11:34:11;;;;;;;11.30;8.05;;;26.60;99.90;;;;;;5006219;28;20030;-80
2023/06/19 11:36:41;;;;;;;7.07;6.18;;;25.90;99.90;;;;;;5020307;28;20038;-80
2023/06/19 11:39:15;;;;;;;8.98;8.10;;;26.30;99.90;;;;;;5021393;28;20034;-81
2023/06/19 11:41:44;;;;;;;10.63;9.63;;;26.00;99.90;;;;;;4983694;28;20033;-81
2023/06/19 11:44:10;;;;;;;9.43;8.43;;;25.90;99.90;;;;;;5006864;28;20049;-80
2023/06/19 11:46:37;;;;;;;6.60;6.00;;;25.60;99.90;;;;;;4980859;28;20304;-81
2023/06/19 11:49:19;;;;;;;9.10;8.30;;;26.10;99.90;;;;;;5006898;28;20129;-80
2023/06/19 11:51:46;;;;;;;8.25;6.80;;;25.90;99.90;;;;;;4999444;28;20072;-81
2023/06/19 11:54:14;;;;;;;9.00;8.20;;;26.10;99.90;;;;;;4985229;28;20030;-81
2023/06/19 11:56:40;;;;;;;7.60;6.88;;;25.90;99.90;;;;;;5017783;28;20030;-80
2023/06/19 11:59:07;;;;;;;8.77;7.97;;;26.20;99.90;;;;;;5002225;28;20117;-81
2023/06/19 12:01:33;;;;;;;8.38;7.68;;;26.30;99.90;;;;;;5020469;28;20393;-80
2023/06/19 12:04:00;;;;;;;10.00;9.15;;;25.90;99.90;;;;;;5037268;28;20033;-80
2023/06/19 12:06:26;;;;;;;6.40;5.57;;;25.70;99.90;;;;;;5019452;28;20498;-81
2023/06/19 12:08:52;;;;;;;8.65;7.85;;;26.50;99.90;;;;;;5005454;28;20041;-80
2023/06/19 12:11:17;;;;;;;7.93;7.15;;;26.20;99.90;;;;;;5035034;28;21904;-80
2023/06/19 12:13:43;;;;;;;7.43;5.28;;;25.90;99.90;;;;;;5018178;28;20455;-81
2023/06/19 12:16:14;;;;;;;8.27;6.50;;;26.50;99.90;;;;;;4983912;28;20540;-81
2023/06/19 12:18:40;;;;;;;7.38;6.78;;;26.90;99.90;;;;;;5036256;28;20026;-81
2023/06/19 12:21:06;;;;;;;5.00;4.57;;;27.20;99.90;;;;;;5006257;28;20056;-81
2023/06/19 12:23:32;;;;;;;5.18;4.70;;;28.20;99.90;;;;;;5036040;28;20427;-81
2023/06/19 12:25:58;;;;;;;10.85;9.10;;;27.60;99.90;;;;;;5005619;28;20038;-80
2023/06/19 12:28:25;;;;;;;12.48;9.57;;;26.80;99.90;;;;;;5006486;28;20057;-80
2023/06/19 12:30:52;;;;;;;7.95;7.15;;;26.30;99.90;;;;;;5015934;28;20125;-81
2023/06/19 12:33:20;;;;;;;11.68;10.35;;;26.90;99.90;;;;;;5005153;28;20034;-81
2023/06/19 12:35:46;;;;;;;7.13;6.43;;;26.20;99.90;;;;;;5021168;28;20402;-81
2023/06/19 12:38:11;;;;;;;5.80;5.05;;;26.90;99.90;;;;;;5004025;28;20026;-81
2023/06/19 12:40:37;;;;;;;10.57;9.45;;;27.70;99.90;;;;;;5019980;28;20034;-81
2023/06/19 12:43:03;;;;;;;12.48;11.38;;;27.00;99.90;;;;;;5010487;28;20746;-81
2023/06/19 12:45:29;;;;;;;12.02;10.85;;;26.30;99.90;;;;;;5003094;28;20034;-81
2023/06/19 12:47:55;;;;;;;7.90;7.20;;;26.40;99.90;;;;;;5019296;28;20284;-81